sensor_id;sensor_type;location;lat;lon;timestamp;pressure;altitude;pressure_sealevel;temperature;humidity
50093;BME280;35974;47.752;10.290;2023-04-23T00:01:02;93297.03;;;11.25;100.00
50093;BME280;35974;47.752;10.290;2023-04-23T00:03:29;93301.28;;;11.38;100.00
50093;BME280;35974;47.752;10.290;2023-04-23T00:05:58;93298.69;;;11.50;100.00
50093;BME280;35974;47.752;10.290;2023-04-23T00:08:25;93295.50;;;11.48;100.00
50093;BME280;35974;47.752;10.290;2023-04-23T00:10:52;93294.38;;;11.44;100.00
50093;BME280;35974;47.752;10.290;2023-04-23T00:13:18;93292.00;;;11.54;100.00
50093;BME280;35974;47.752;10.290;2023-04-23T00:15:45;93295.38;;;11.43;100.00
50093;BME280;35974;47.752;10.290;2023-04-23T00:18:11;93294.22;;;11.39;100.00
50093;BME280;35974;47.752;10.290;2023-04-23T00:20:37;93289.13;;;11.44;100.00
50093;BME280;35974;47.752;10.290;2023-04-23T00:23:04;93288.34;;;11.13;100.00
50093;BME280;35974;47.752;10.290;2023-04-23T00:25:30;93302.22;;;11.13;100.00
50093;BME280;35974;47.752;10.290;2023-04-23T00:27:57;93295.59;;;11.11;100.00
50093;BME280;35974;47.752;10.290;2023-04-23T00:30:23;93291.97;;;11.12;100.00
50093;BME280;35974;47.752;10.290;2023-04-23T00:32:49;93297.31;;;11.17;100.00
50093;BME280;35974;47.752;10.290;2023-04-23T00:35:22;93296.53;;;11.16;100.00
50093;BME280;35974;47.752;10.290;2023-04-23T00:37:48;93294.28;;;11.20;100.00
50093;BME280;35974;47.752;10.290;2023-04-23T00:40:15;93292.41;;;11.09;100.00
50093;BME280;35974;47.752;10.290;2023-04-23T00:42:41;93299.25;;;11.10;100.00
50093;BME280;35974;47.752;10.290;2023-04-23T00:45:09;93300.75;;;11.17;100.00
50093;BME280;35974;47.752;10.290;2023-04-23T00:47:35;93303.47;;;10.92;100.00
50093;BME280;35974;47.752;10.290;2023-04-23T00:50:02;93301.72;;;10.86;100.00
50093;BME280;35974;47.752;10.290;2023-04-23T00:52:29;93300.28;;;10.90;100.00
50093;BME280;35974;47.752;10.290;2023-04-23T00:54:55;93295.84;;;10.91;100.00
50093;BME280;35974;47.752;10.290;2023-04-23T00:57:24;93298.97;;;10.81;100.00
50093;BME280;35974;47.752;10.290;2023-04-23T00:59:51;93297.50;;;10.85;100.00
50093;BME280;35974;47.752;10.290;2023-04-23T01:02:17;93309.31;;;10.76;100.00
50093;BME280;35974;47.752;10.290;2023-04-23T01:04:44;93304.94;;;10.70;100.00
50093;BME280;35974;47.752;10.290;2023-04-23T01:07:10;93304.94;;;10.70;100.00
50093;BME280;35974;47.752;10.290;2023-04-23T01:09:37;93315.84;;;10.67;100.00
50093;BME280;35974;47.752;10.290;2023-04-23T01:12:04;93304.94;;;10.70;100.00
50093;BME280;35974;47.752;10.290;2023-04-23T01:14:31;93310.59;;;10.85;100.00
50093;BME280;35974;47.752;10.290;2023-04-23T01:16:58;93314.31;;;10.96;100.00
50093;BME280;35974;47.752;10.290;2023-04-23T01:19:24;93314.38;;;10.89;100.00
50093;BME280;35974;47.752;10.290;2023-04-23T01:21:51;93318.44;;;10.85;100.00
50093;BME280;35974;47.752;10.290;2023-04-23T01:24:18;93324.13;;;10.82;100.00
50093;BME280;35974;47.752;10.290;2023-04-23T01:26:58;93323.97;;;10.95;100.00
50093;BME280;35974;47.752;10.290;2023-04-23T01:29:24;93335.91;;;11.10;100.00
50093;BME280;35974;47.752;10.290;2023-04-23T01:31:51;93332.41;;;10.97;100.00
50093;BME280;35974;47.752;10.290;2023-04-23T01:34:18;93335.09;;;10.91;100.00
50093;BME280;35974;47.752;10.290;2023-04-23T01:36:45;93336.09;;;10.90;100.00
50093;BME280;35974;47.752;10.290;2023-04-23T01:39:12;93335.31;;;10.89;100.00
50093;BME280;35974;47.752;10.290;2023-04-23T01:41:39;93332.56;;;10.84;100.00
50093;BME280;35974;47.752;10.290;2023-04-23T01:44:22;93338.81;;;10.83;100.00
50093;BME280;35974;47.752;10.290;2023-04-23T01:46:48;93333.28;;;10.73;100.00
50093;BME280;35974;47.752;10.290;2023-04-23T01:49:15;93337.47;;;10.55;100.00
50093;BME280;35974;47.752;10.290;2023-04-23T01:51:41;93338.47;;;10.54;100.00
50093;BME280;35974;47.752;10.290;2023-04-23T01:54:08;93326.31;;;10.67;100.00
50093;BME280;35974;47.752;10.290;2023-04-23T01:56:34;93327.03;;;10.74;100.00
50093;BME280;35974;47.752;10.290;2023-04-23T01:59:01;93325.78;;;10.58;100.00
50093;BME280;35974;47.752;10.290;2023-04-23T02:01:43;93327.59;;;10.57;100.00
50093;BME280;35974;47.752;10.290;2023-04-23T02:04:11;93325.78;;;10.58;100.00
50093;BME280;35974;47.752;10.290;2023-04-23T02:06:38;93323.53;;;10.61;100.00
50093;BME280;35974;47.752;10.290;2023-04-23T02:09:04;93340.97;;;10.49;100.00
50093;BME280;35974;47.752;10.290;2023-04-23T02:11:31;93337.63;;;10.60;100.00
50093;BME280;35974;47.752;10.290;2023-04-23T02:13:57;93340.97;;;10.49;100.00
50093;BME280;35974;47.752;10.290;2023-04-23T02:16:23;93338.34;;;10.49;100.00
50093;BME280;35974;47.752;10.290;2023-04-23T02:18:50;93340.00;;;10.43;100.00
50093;BME280;35974;47.752;10.290;2023-04-23T02:21:16;93340.16;;;10.23;100.00
50093;BME280;35974;47.752;10.290;2023-04-23T02:23:43;93352.28;;;10.43;100.00
50093;BME280;35974;47.752;10.290;2023-04-23T02:26:09;93352.59;;;10.53;100.00
50093;BME280;35974;47.752;10.290;2023-04-23T02:28:36;93351.41;;;10.49;100.00
50093;BME280;35974;47.752;10.290;2023-04-23T02:31:02;93344.19;;;10.51;100.00
50093;BME280;35974;47.752;10.290;2023-04-23T02:33:28;93348.66;;;10.44;100.00
50093;BME280;35974;47.752;10.290;2023-04-23T02:35:55;93356.94;;;10.41;100.00
50093;BME280;35974;47.752;10.290;2023-04-23T02:38:21;93358.69;;;10.47;100.00
50093;BME280;35974;47.752;10.290;2023-04-23T02:40:47;93362.72;;;10.43;100.00
50093;BME280;35974;47.752;10.290;2023-04-23T02:43:14;93355.06;;;10.48;100.00
50093;BME280;35974;47.752;10.290;2023-04-23T02:45:40;93365.53;;;10.48;100.00
50093;BME280;35974;47.752;10.290;2023-04-23T02:48:06;93358.84;;;10.52;100.00
50093;BME280;35974;47.752;10.290;2023-04-23T02:50:33;93364.19;;;10.39;100.00
50093;BME280;35974;47.752;10.290;2023-04-23T02:53:00;93369.84;;;10.36;100.00
50093;BME280;35974;47.752;10.290;2023-04-23T02:55:26;93375.75;;;10.24;100.00
50093;BME280;35974;47.752;10.290;2023-04-23T02:57:57;93375.31;;;10.27;100.00
50093;BME280;35974;47.752;10.290;2023-04-23T03:00:24;93372.91;;;10.26;100.00
50093;BME280;35974;47.752;10.290;2023-04-23T03:02:50;93370.31;;;10.26;100.00
50093;BME280;35974;47.752;10.290;2023-04-23T03:05:17;93373.34;;;10.23;100.00
50093;BME280;35974;47.752;10.290;2023-04-23T03:07:43;93372.25;;;10.12;100.00
50093;BME280;35974;47.752;10.290;2023-04-23T03:10:10;93370.56;;;10.18;100.00
50093;BME280;35974;47.752;10.290;2023-04-23T03:12:36;93367.31;;;10.22;100.00
50093;BME280;35974;47.752;10.290;2023-04-23T03:15:02;93376.94;;;10.29;100.00
50093;BME280;35974;47.752;10.290;2023-04-23T03:17:29;93383.00;;;10.22;100.00
50093;BME280;35974;47.752;10.290;2023-04-23T03:19:55;93383.84;;;10.16;100.00
50093;BME280;35974;47.752;10.290;2023-04-23T03:22:21;93385.53;;;10.11;100.00
50093;BME280;35974;47.752;10.290;2023-04-23T03:24:48;93391.44;;;10.24;100.00
50093;BME280;35974;47.752;10.290;2023-04-23T03:27:16;93383.91;;;10.10;100.00
50093;BME280;35974;47.752;10.290;2023-04-23T03:29:42;93385.53;;;10.04;100.00
50093;BME280;35974;47.752;10.290;2023-04-23T03:32:09;93388.84;;;9.93;100.00
50093;BME280;35974;47.752;10.290;2023-04-23T03:34:35;93389.28;;;9.89;100.00
50093;BME280;35974;47.752;10.290;2023-04-23T03:37:02;93388.94;;;9.79;100.00
50093;BME280;35974;47.752;10.290;2023-04-23T03:39:28;93390.91;;;9.84;100.00
50093;BME280;35974;47.752;10.290;2023-04-23T03:41:54;93388.84;;;9.93;100.00
50093;BME280;35974;47.752;10.290;2023-04-23T03:44:21;93392.06;;;9.95;100.00
50093;BME280;35974;47.752;10.290;2023-04-23T03:46:47;93388.38;;;10.02;100.00
50093;BME280;35974;47.752;10.290;2023-04-23T03:49:13;93389.41;;;10.01;100.00
50093;BME280;35974;47.752;10.290;2023-04-23T03:51:39;93395.78;;;10.05;100.00
50093;BME280;35974;47.752;10.290;2023-04-23T03:54:06;93392.44;;;9.98;100.00
50093;BME280;35974;47.752;10.290;2023-04-23T03:56:32;93398.41;;;10.05;100.00
50093;BME280;35974;47.752;10.290;2023-04-23T03:58:58;93396.19;;;10.09;100.00
50093;BME280;35974;47.752;10.290;2023-04-23T04:01:25;93394.72;;;10.13;100.00
50093;BME280;35974;47.752;10.290;2023-04-23T04:03:51;93397.88;;;9.97;100.00
50093;BME280;35974;47.752;10.290;2023-04-23T04:06:18;93394.88;;;9.93;100.00
50093;BME280;35974;47.752;10.290;2023-04-23T04:08:44;93404.50;;;9.99;100.00
50093;BME280;35974;47.752;10.290;2023-04-23T04:11:11;93393.31;;;9.85;100.00
50093;BME280;35974;47.752;10.290;2023-04-23T04:13:37;93398.88;;;9.96;100.00
50093;BME280;35974;47.752;10.290;2023-04-23T04:16:03;93400.91;;;9.94;100.00
50093;BME280;35974;47.752;10.290;2023-04-23T04:18:30;93402.94;;;9.92;100.00
50093;BME280;35974;47.752;10.290;2023-04-23T04:20:56;93406.97;;;9.87;100.00
50093;BME280;35974;47.752;10.290;2023-04-23T04:23:23;93399.84;;;9.69;100.00
50093;BME280;35974;47.752;10.290;2023-04-23T04:25:49;93405.88;;;9.70;100.00
50093;BME280;35974;47.752;10.290;2023-04-23T04:28:22;93403.34;;;9.88;100.00
50093;BME280;35974;47.752;10.290;2023-04-23T04:30:53;93399.69;;;9.96;100.00
50093;BME280;35974;47.752;10.290;2023-04-23T04:33:22;93401.75;;;9.87;100.00
50093;BME280;35974;47.752;10.290;2023-04-23T04:35:50;93396.50;;;9.87;100.00
50093;BME280;35974;47.752;10.290;2023-04-23T04:38:17;93403.69;;;9.99;100.00
50093;BME280;35974;47.752;10.290;2023-04-23T04:40:43;93402.09;;;9.98;100.00
50093;BME280;35974;47.752;10.290;2023-04-23T04:43:09;93409.75;;;9.93;100.00
50093;BME280;35974;47.752;10.290;2023-04-23T04:45:36;93400.16;;;9.86;100.00
50093;BME280;35974;47.752;10.290;2023-04-23T04:48:02;93406.38;;;9.85;100.00
50093;BME280;35974;47.752;10.290;2023-04-23T04:50:29;93392.47;;;9.92;100.00
50093;BME280;35974;47.752;10.290;2023-04-23T04:52:55;93403.94;;;9.90;100.00
50093;BME280;35974;47.752;10.290;2023-04-23T04:55:21;93404.97;;;9.89;100.00
50093;BME280;35974;47.752;10.290;2023-04-23T04:57:48;93397.28;;;9.95;100.00
50093;BME280;35974;47.752;10.290;2023-04-23T05:03:06;93395.25;;;9.97;100.00
50093;BME280;35974;47.752;10.290;2023-04-23T05:05:33;93397.88;;;9.97;100.00
50093;BME280;35974;47.752;10.290;2023-04-23T05:08:00;93400.06;;;10.00;100.00
50093;BME280;35974;47.752;10.290;2023-04-23T05:10:28;93402.88;;;9.98;100.00
50093;BME280;35974;47.752;10.290;2023-04-23T05:12:57;93407.31;;;9.98;100.00
50093;BME280;35974;47.752;10.290;2023-04-23T05:15:32;93404.16;;;9.89;100.00
50093;BME280;35974;47.752;10.290;2023-04-23T05:18:01;93403.31;;;9.95;100.00
50093;BME280;35974;47.752;10.290;2023-04-23T05:20:28;93407.28;;;10.04;100.00
50093;BME280;35974;47.752;10.290;2023-04-23T05:23:01;93399.91;;;9.95;100.00
50093;BME280;35974;47.752;10.290;2023-04-23T05:28:04;93395.63;;;10.00;100.00
50093;BME280;35974;47.752;10.290;2023-04-23T05:30:30;93396.44;;;10.01;100.00
50093;BME280;35974;47.752;10.290;2023-04-23T05:33:01;93399.19;;;10.13;100.00
50093;BME280;35974;47.752;10.290;2023-04-23T05:35:27;93395.81;;;10.31;100.00
50093;BME280;35974;47.752;10.290;2023-04-23T05:37:54;93395.50;;;10.20;100.00
50093;BME280;35974;47.752;10.290;2023-04-23T05:40:20;93399.66;;;10.03;100.00
50093;BME280;35974;47.752;10.290;2023-04-23T05:42:47;93397.19;;;10.08;100.00
50093;BME280;35974;47.752;10.290;2023-04-23T05:45:14;93396.34;;;10.14;100.00
50093;BME280;35974;47.752;10.290;2023-04-23T05:47:40;93399.22;;;10.06;100.00
50093;BME280;35974;47.752;10.290;2023-04-23T05:50:06;93405.72;;;9.97;100.00
50093;BME280;35974;47.752;10.290;2023-04-23T05:52:34;93408.06;;;10.05;100.00
50093;BME280;35974;47.752;10.290;2023-04-23T05:55:02;93399.13;;;10.19;100.00
50093;BME280;35974;47.752;10.290;2023-04-23T05:57:31;93404.34;;;10.19;100.00
50093;BME280;35974;47.752;10.290;2023-04-23T05:59:57;93401.91;;;10.24;100.00
50093;BME280;35974;47.752;10.290;2023-04-23T06:02:23;93404.28;;;10.33;100.00
50093;BME280;35974;47.752;10.290;2023-04-23T06:04:57;93405.06;;;10.33;100.00
50093;BME280;35974;47.752;10.290;2023-04-23T06:07:24;93400.25;;;10.30;100.00
50093;BME280;35974;47.752;10.290;2023-04-23T06:09:51;93399.84;;;10.33;100.00
50093;BME280;35974;47.752;10.290;2023-04-23T06:12:26;93405.47;;;10.37;100.00
50093;BME280;35974;47.752;10.290;2023-04-23T06:14:53;93405.03;;;10.40;100.00
50093;BME280;35974;47.752;10.290;2023-04-23T06:17:19;93407.06;;;10.31;100.00
50093;BME280;35974;47.752;10.290;2023-04-23T06:19:45;93411.66;;;10.11;100.00
50093;BME280;35974;47.752;10.290;2023-04-23T06:22:12;93412.13;;;10.01;100.00
50093;BME280;35974;47.752;10.290;2023-04-23T06:24:41;93409.38;;;10.21;100.00
50093;BME280;35974;47.752;10.290;2023-04-23T06:27:08;93401.56;;;10.14;100.00
50093;BME280;35974;47.752;10.290;2023-04-23T06:29:34;93392.69;;;10.15;100.00
50093;BME280;35974;47.752;10.290;2023-04-23T06:32:01;93405.97;;;10.20;100.00
50093;BME280;35974;47.752;10.290;2023-04-23T06:34:28;93399.44;;;10.30;100.00
50093;BME280;35974;47.752;10.290;2023-04-23T06:36:54;93402.63;;;10.38;100.00
50093;BME280;35974;47.752;10.290;2023-04-23T06:39:20;93399.81;;;10.40;100.00
50093;BME280;35974;47.752;10.290;2023-04-23T06:41:47;93393.69;;;10.46;100.00
50093;BME280;35974;47.752;10.290;2023-04-23T06:44:13;93393.88;;;10.51;100.00
50093;BME280;35974;47.752;10.290;2023-04-23T06:46:39;93389.94;;;10.60;100.00
50093;BME280;35974;47.752;10.290;2023-04-23T06:49:06;93383.34;;;10.33;100.00
50093;BME280;35974;47.752;10.290;2023-04-23T06:51:33;93381.13;;;10.30;100.00
50093;BME280;35974;47.752;10.290;2023-04-23T06:53:59;93380.25;;;10.17;100.00
50093;BME280;35974;47.752;10.290;2023-04-23T06:56:26;93381.38;;;10.53;100.00
50093;BME280;35974;47.752;10.290;2023-04-23T06:58:52;93386.53;;;10.35;100.00
50093;BME280;35974;47.752;10.290;2023-04-23T07:01:19;93382.22;;;10.47;100.00
50093;BME280;35974;47.752;10.290;2023-04-23T07:03:45;93379.50;;;10.60;100.00
50093;BME280;35974;47.752;10.290;2023-04-23T07:06:14;93379.56;;;10.54;100.00
50093;BME280;35974;47.752;10.290;2023-04-23T07:08:41;93386.03;;;10.51;100.00
50093;BME280;35974;47.752;10.290;2023-04-23T07:11:08;93388.66;;;10.70;100.00
50093;BME280;35974;47.752;10.290;2023-04-23T07:13:36;93383.88;;;10.67;100.00
50093;BME280;35974;47.752;10.290;2023-04-23T07:16:02;93386.06;;;10.88;100.00
50093;BME280;35974;47.752;10.290;2023-04-23T07:18:28;93387.38;;;10.79;100.00
50093;BME280;35974;47.752;10.290;2023-04-23T07:20:54;93380.81;;;10.88;100.00
50093;BME280;35974;47.752;10.290;2023-04-23T07:23:21;93384.97;;;10.77;100.00
50093;BME280;35974;47.752;10.290;2023-04-23T07:25:47;93380.38;;;10.73;100.00
50093;BME280;35974;47.752;10.290;2023-04-23T07:28:14;93371.28;;;10.75;100.00
50093;BME280;35974;47.752;10.290;2023-04-23T07:30:40;93373.25;;;10.80;100.00
50093;BME280;35974;47.752;10.290;2023-04-23T07:33:07;93364.97;;;10.83;100.00
50093;BME280;35974;47.752;10.290;2023-04-23T07:35:34;93372.41;;;10.86;100.00
50093;BME280;35974;47.752;10.290;2023-04-23T07:38:01;93365.13;;;10.88;100.00
50093;BME280;35974;47.752;10.290;2023-04-23T07:40:39;93369.50;;;10.94;100.00
50093;BME280;35974;47.752;10.290;2023-04-23T07:43:05;93371.38;;;11.06;100.00
50093;BME280;35974;47.752;10.290;2023-04-23T07:45:32;93365.63;;;11.15;100.00
50093;BME280;35974;47.752;10.290;2023-04-23T07:48:08;93369.13;;;11.28;100.00
50093;BME280;35974;47.752;10.290;2023-04-23T07:50:35;93369.38;;;11.38;100.00
50093;BME280;35974;47.752;10.290;2023-04-23T07:53:10;93369.03;;;11.34;100.00
50093;BME280;35974;47.752;10.290;2023-04-23T07:55:37;93363.06;;;11.27;100.00
50093;BME280;35974;47.752;10.290;2023-04-23T07:58:03;93367.44;;;11.33;100.00
50093;BME280;35974;47.752;10.290;2023-04-23T08:00:29;93363.72;;;11.71;100.00
50093;BME280;35974;47.752;10.290;2023-04-23T08:02:57;93370.59;;;11.05;100.00
50093;BME280;35974;47.752;10.290;2023-04-23T08:05:23;93361.34;;;11.03;100.00
50093;BME280;35974;47.752;10.290;2023-04-23T08:07:50;93360.31;;;11.41;100.00
50093;BME280;35974;47.752;10.290;2023-04-23T08:10:17;93360.16;;;11.66;100.00
50093;BME280;35974;47.752;10.290;2023-04-23T08:12:43;93351.22;;;11.55;100.00
50093;BME280;35974;47.752;10.290;2023-04-23T08:15:10;93354.19;;;11.89;100.00
50093;BME280;35974;47.752;10.290;2023-04-23T08:17:36;93358.00;;;11.75;100.00
50093;BME280;35974;47.752;10.290;2023-04-23T08:20:03;93344.97;;;11.86;100.00
50093;BME280;35974;47.752;10.290;2023-04-23T08:22:32;93346.28;;;12.07;100.00
50093;BME280;35974;47.752;10.290;2023-04-23T08:24:58;93344.22;;;12.09;100.00
50093;BME280;35974;47.752;10.290;2023-04-23T08:27:24;93328.53;;;12.33;100.00
50093;BME280;35974;47.752;10.290;2023-04-23T08:29:51;93327.03;;;12.49;100.00
50093;BME280;35974;47.752;10.290;2023-04-23T08:32:17;93243.88;;;12.26;100.00
50093;BME280;35974;47.752;10.290;2023-04-23T08:34:44;93327.84;;;13.14;100.00
50093;BME280;35974;47.752;10.290;2023-04-23T08:37:23;93317.81;;;13.11;100.00
50093;BME280;35974;47.752;10.290;2023-04-23T08:39:56;93320.97;;;13.25;100.00
50093;BME280;35974;47.752;10.290;2023-04-23T08:42:23;93321.53;;;13.27;100.00
50093;BME280;35974;47.752;10.290;2023-04-23T08:44:52;93322.69;;;13.31;100.00
50093;BME280;35974;47.752;10.290;2023-04-23T08:47:19;93322.34;;;13.39;100.00
50093;BME280;35974;47.752;10.290;2023-04-23T08:49:49;93310.97;;;13.50;100.00
50093;BME280;35974;47.752;10.290;2023-04-23T08:52:21;93311.94;;;13.61;100.00
50093;BME280;35974;47.752;10.290;2023-04-23T08:54:49;93305.91;;;13.61;100.00
50093;BME280;35974;47.752;10.290;2023-04-23T08:57:16;93306.41;;;13.75;100.00
50093;BME280;35974;47.752;10.290;2023-04-23T08:59:43;93311.13;;;13.89;100.00
50093;BME280;35974;47.752;10.290;2023-04-23T09:02:09;93312.00;;;13.78;100.00
50093;BME280;35974;47.752;10.290;2023-04-23T09:04:36;93305.47;;;13.98;100.00
50093;BME280;35974;47.752;10.290;2023-04-23T09:07:03;93303.47;;;14.05;100.00
50093;BME280;35974;47.752;10.290;2023-04-23T09:09:30;93300.34;;;14.42;100.00
50093;BME280;35974;47.752;10.290;2023-04-23T09:11:56;93289.53;;;14.21;100.00
50093;BME280;35974;47.752;10.290;2023-04-23T09:14:23;93292.09;;;13.99;100.00
50093;BME280;35974;47.752;10.290;2023-04-23T09:16:51;93289.56;;;13.59;100.00
50093;BME280;35974;47.752;10.290;2023-04-23T09:19:17;93274.47;;;13.83;100.00
50093;BME280;35974;47.752;10.290;2023-04-23T09:21:44;93271.22;;;13.93;100.00
50093;BME280;35974;47.752;10.290;2023-04-23T09:24:11;93265.94;;;13.93;100.00
50093;BME280;35974;47.752;10.290;2023-04-23T09:26:43;93263.78;;;13.89;100.00
50093;BME280;35974;47.752;10.290;2023-04-23T09:29:20;93259.22;;;14.02;100.00
50093;BME280;35974;47.752;10.290;2023-04-23T09:31:49;93260.81;;;14.37;100.00
50093;BME280;35974;47.752;10.290;2023-04-23T09:34:17;93256.31;;;13.81;100.00
50093;BME280;35974;47.752;10.290;2023-04-23T09:36:47;93257.75;;;13.43;100.00
50093;BME280;35974;47.752;10.290;2023-04-23T09:39:16;93252.69;;;13.53;100.00
50093;BME280;35974;47.752;10.290;2023-04-23T09:41:45;93247.28;;;13.77;100.00
50093;BME280;35974;47.752;10.290;2023-04-23T09:44:13;93244.44;;;13.96;100.00
50093;BME280;35974;47.752;10.290;2023-04-23T09:46:43;93238.38;;;13.78;100.00
50093;BME280;35974;47.752;10.290;2023-04-23T09:49:14;93242.19;;;14.04;100.00
50093;BME280;35974;47.752;10.290;2023-04-23T09:51:41;93245.03;;;14.20;100.00
50093;BME280;35974;47.752;10.290;2023-04-23T09:54:12;93241.00;;;14.51;100.00
50093;BME280;35974;47.752;10.290;2023-04-23T09:56:39;93237.06;;;14.32;100.00
50093;BME280;35974;47.752;10.290;2023-04-23T09:59:22;93231.72;;;14.88;100.00
50093;BME280;35974;47.752;10.290;2023-04-23T10:04:39;93220.69;;;15.13;100.00
50093;BME280;35974;47.752;10.290;2023-04-23T10:07:06;93210.13;;;15.67;100.00
50093;BME280;35974;47.752;10.290;2023-04-23T10:09:45;93206.41;;;15.96;100.00
50093;BME280;35974;47.752;10.290;2023-04-23T10:12:12;93196.72;;;16.06;100.00
50093;BME280;35974;47.752;10.290;2023-04-23T10:14:42;93195.75;;;16.23;100.00
50093;BME280;35974;47.752;10.290;2023-04-23T10:17:09;93194.00;;;16.39;100.00
50093;BME280;35974;47.752;10.290;2023-04-23T10:19:36;93197.78;;;16.53;100.00
50093;BME280;35974;47.752;10.290;2023-04-23T10:22:07;93194.16;;;16.75;100.00
50093;BME280;35974;47.752;10.290;2023-04-23T10:24:43;93187.69;;;16.98;100.00
50093;BME280;35974;47.752;10.290;2023-04-23T10:27:14;93196.75;;;17.33;90.29
50093;BME280;35974;47.752;10.290;2023-04-23T10:29:58;93191.19;;;17.19;94.54
50093;BME280;35974;47.752;10.290;2023-04-23T10:32:26;93189.91;;;17.42;95.19
50093;BME280;35974;47.752;10.290;2023-04-23T10:34:52;93189.31;;;17.14;93.01
50093;BME280;35974;47.752;10.290;2023-04-23T10:37:19;93187.19;;;17.06;92.94
50093;BME280;35974;47.752;10.290;2023-04-23T10:39:46;93187.59;;;16.82;97.09
50093;BME280;35974;47.752;10.290;2023-04-23T10:42:15;93185.34;;;16.54;94.70
50093;BME280;35974;47.752;10.290;2023-04-23T10:44:42;93182.97;;;16.04;100.00
50093;BME280;35974;47.752;10.290;2023-04-23T10:47:12;93193.25;;;15.68;100.00
50093;BME280;35974;47.752;10.290;2023-04-23T10:49:39;93181.53;;;15.86;100.00
50093;BME280;35974;47.752;10.290;2023-04-23T10:54:51;93191.31;;;15.86;96.71
50093;BME280;35974;47.752;10.290;2023-04-23T10:57:21;93181.69;;;15.74;98.63
50093;BME280;35974;47.752;10.290;2023-04-23T10:59:52;93179.44;;;15.88;99.80
50093;BME280;35974;47.752;10.290;2023-04-23T11:02:19;93175.53;;;15.96;100.00
50093;BME280;35974;47.752;10.290;2023-04-23T11:04:56;93174.69;;;16.28;98.49
50093;BME280;35974;47.752;10.290;2023-04-23T11:07:29;93169.34;;;16.18;95.58
50093;BME280;35974;47.752;10.290;2023-04-23T11:10:00;93168.16;;;15.98;93.54
50093;BME280;35974;47.752;10.290;2023-04-23T11:12:37;93162.22;;;16.18;96.39
50093;BME280;35974;47.752;10.290;2023-04-23T11:18:10;93164.13;;;16.28;91.18
50093;BME280;35974;47.752;10.290;2023-04-23T11:20:38;93165.84;;;16.07;95.07
50093;BME280;35974;47.752;10.290;2023-04-23T11:23:09;93156.03;;;15.97;97.87
50093;BME280;35974;47.752;10.290;2023-04-23T11:25:56;93146.34;;;16.76;92.18
50093;BME280;35974;47.752;10.290;2023-04-23T11:28:23;93157.88;;;16.50;93.46
50093;BME280;35974;47.752;10.290;2023-04-23T11:33:20;93150.06;;;16.80;91.23
50093;BME280;35974;47.752;10.290;2023-04-23T11:35:48;93139.66;;;16.48;89.40
50093;BME280;35974;47.752;10.290;2023-04-23T11:38:15;93137.56;;;16.50;93.24
50093;BME280;35974;47.752;10.290;2023-04-23T11:40:44;93137.50;;;17.18;89.28
50093;BME280;35974;47.752;10.290;2023-04-23T11:43:11;93129.56;;;17.24;88.72
50093;BME280;35974;47.752;10.290;2023-04-23T11:45:43;93128.53;;;17.19;89.67
50093;BME280;35974;47.752;10.290;2023-04-23T11:48:11;93119.81;;;17.19;87.23
50093;BME280;35974;47.752;10.290;2023-04-23T11:50:39;93118.47;;;17.27;86.01
50093;BME280;35974;47.752;10.290;2023-04-23T11:53:10;93118.47;;;17.32;84.47
50093;BME280;35974;47.752;10.290;2023-04-23T11:55:37;93103.13;;;17.13;87.11
50093;BME280;35974;47.752;10.290;2023-04-23T11:58:08;93099.97;;;17.32;85.12
50093;BME280;35974;47.752;10.290;2023-04-23T12:00:36;93090.44;;;17.05;86.98
50093;BME280;35974;47.752;10.290;2023-04-23T12:03:07;93084.09;;;17.22;86.23
50093;BME280;35974;47.752;10.290;2023-04-23T12:05:35;93088.34;;;17.17;88.56
50093;BME280;35974;47.752;10.290;2023-04-23T12:10:32;93084.63;;;17.54;84.17
50093;BME280;35974;47.752;10.290;2023-04-23T12:12:58;93081.47;;;17.27;86.41
50093;BME280;35974;47.752;10.290;2023-04-23T12:15:26;93079.63;;;17.32;88.23
50093;BME280;35974;47.752;10.290;2023-04-23T12:18:09;93074.06;;;17.39;85.22
50093;BME280;35974;47.752;10.290;2023-04-23T12:20:36;93076.16;;;17.57;85.41
50093;BME280;35974;47.752;10.290;2023-04-23T12:25:34;93071.38;;;17.54;87.10
50093;BME280;35974;47.752;10.290;2023-04-23T12:28:03;93066.13;;;17.24;84.58
50093;BME280;35974;47.752;10.290;2023-04-23T12:30:31;93065.59;;;17.27;87.87
50093;BME280;35974;47.752;10.290;2023-04-23T12:32:58;93058.72;;;17.46;84.22
50093;BME280;35974;47.752;10.290;2023-04-23T12:35:37;93063.47;;;17.18;86.57
50093;BME280;35974;47.752;10.290;2023-04-23T12:38:04;93064.53;;;17.33;84.09
50093;BME280;35974;47.752;10.290;2023-04-23T12:40:32;93064.56;;;17.23;86.38
50093;BME280;35974;47.752;10.290;2023-04-23T12:42:59;93058.19;;;16.98;88.63
50093;BME280;35974;47.752;10.290;2023-04-23T12:45:25;93061.38;;;17.10;88.69
50093;BME280;35974;47.752;10.290;2023-04-23T12:48:01;93054.50;;;17.40;87.53
50093;BME280;35974;47.752;10.290;2023-04-23T12:50:30;93050.78;;;17.62;88.41
50093;BME280;35974;47.752;10.290;2023-04-23T12:52:56;93047.53;;;18.01;87.48
50093;BME280;35974;47.752;10.290;2023-04-23T12:55:22;93042.47;;;18.04;85.00
50093;BME280;35974;47.752;10.290;2023-04-23T12:57:49;93031.75;;;18.35;80.88
50093;BME280;35974;47.752;10.290;2023-04-23T13:00:15;93028.47;;;17.99;84.88
50093;BME280;35974;47.752;10.290;2023-04-23T13:02:41;93033.19;;;18.12;83.00
50093;BME280;35974;47.752;10.290;2023-04-23T13:05:08;93026.41;;;17.90;85.75
50093;BME280;35974;47.752;10.290;2023-04-23T13:07:35;93020.00;;;17.97;82.89